createdAt,value
2022-10-29T00:00:13.334Z,14.21
2022-10-29T00:02:41.150Z,14.17
2022-10-29T00:05:09.811Z,14.15
2022-10-29T00:07:37.661Z,14.13
2022-10-29T00:10:08.023Z,14.11
2022-10-29T00:12:36.176Z,14.10
2022-10-29T00:15:05.185Z,14.08
2022-10-29T00:17:32.932Z,14.06
2022-10-29T00:20:00.782Z,14.01
2022-10-29T00:22:28.644Z,13.97
2022-10-29T00:24:56.444Z,13.93
2022-10-29T00:27:26.144Z,13.90
2022-10-29T00:29:55.346Z,13.88
2022-10-29T00:32:23.274Z,13.90
2022-10-29T00:34:51.041Z,13.91
2022-10-29T00:37:18.769Z,13.95
2022-10-29T00:39:46.515Z,13.98
2022-10-29T00:42:16.649Z,14.05
2022-10-29T00:44:45.991Z,14.11
2022-10-29T00:47:25.871Z,14.14
2022-10-29T00:49:57.561Z,14.12
2022-10-29T00:52:30.942Z,14.09
2022-10-29T00:55:02.199Z,14.02
2022-10-29T00:57:36.951Z,13.98
2022-10-29T01:00:07.355Z,13.94
2022-10-29T01:02:36.423Z,13.89
2022-10-29T01:05:05.581Z,13.85
2022-10-29T01:07:33.408Z,13.82
2022-10-29T01:10:01.169Z,13.78
2022-10-29T01:12:44.717Z,13.74
2022-10-29T01:15:22.360Z,13.70
2022-10-29T01:18:04.290Z,13.68
2022-10-29T01:21:05.551Z,13.66
2022-10-29T01:24:07.331Z,13.64
2022-10-29T01:26:59.959Z,13.61
2022-10-29T01:29:44.353Z,13.58
2022-10-29T01:32:15.453Z,13.56
2022-10-29T01:34:52.535Z,13.53
2022-10-29T01:37:27.362Z,13.52
2022-10-29T01:39:59.606Z,13.52
2022-10-29T01:42:32.954Z,13.49
2022-10-29T01:45:09.143Z,13.47
2022-10-29T01:47:43.121Z,13.44
2022-10-29T01:50:16.429Z,13.43
2022-10-29T01:52:45.791Z,13.40
2022-10-29T01:55:17.413Z,13.39
2022-10-29T01:57:45.296Z,13.37
2022-10-29T02:00:15.754Z,13.35
2022-10-29T02:02:55.608Z,13.33
2022-10-29T02:05:32.999Z,13.32
2022-10-29T02:08:14.864Z,13.33
2022-10-29T02:10:49.991Z,13.34
2022-10-29T02:13:20.137Z,13.34
2022-10-29T02:15:52.388Z,13.35
2022-10-29T02:18:21.664Z,13.36
2022-10-29T02:20:49.463Z,13.36
2022-10-29T02:23:17.703Z,13.39
2022-10-29T02:25:45.691Z,13.41
2022-10-29T02:28:13.546Z,13.42
2022-10-29T02:30:41.325Z,13.45
2022-10-29T02:33:09.058Z,13.46
2022-10-29T02:35:38.237Z,13.47
2022-10-29T02:38:05.989Z,13.48
2022-10-29T02:40:34.195Z,13.49
2022-10-29T02:43:02.002Z,13.51
2022-10-29T02:45:29.782Z,13.51
2022-10-29T02:47:57.836Z,13.52
2022-10-29T02:50:26.003Z,13.53
2022-10-29T02:52:55.133Z,13.51
2022-10-29T02:55:22.910Z,13.51
2022-10-29T02:57:50.759Z,13.49
2022-10-29T03:00:19.300Z,13.49
2022-10-29T03:02:47.336Z,13.48
2022-10-29T03:05:15.288Z,13.46
2022-10-29T03:07:43.061Z,13.46
2022-10-29T03:10:12.403Z,13.46
2022-10-29T03:12:40.138Z,13.44
2022-10-29T03:15:08.762Z,13.45
2022-10-29T03:17:36.584Z,13.44
2022-10-29T03:20:04.915Z,13.45
2022-10-29T03:22:32.694Z,13.45
2022-10-29T03:25:00.520Z,13.44
2022-10-29T03:27:29.662Z,13.44
2022-10-29T03:29:57.381Z,13.44
2022-10-29T03:32:25.094Z,13.45
2022-10-29T03:34:56.059Z,13.44
2022-10-29T03:37:27.155Z,13.44
2022-10-29T03:39:55.091Z,13.42
2022-10-29T03:42:22.979Z,13.44
2022-10-29T03:44:52.386Z,13.42
2022-10-29T03:47:20.166Z,13.42
2022-10-29T03:49:48.065Z,13.42
2022-10-29T03:52:15.832Z,13.42
2022-10-29T03:54:43.700Z,13.43
2022-10-29T03:57:11.544Z,13.43
2022-10-29T03:59:39.388Z,13.40
2022-10-29T04:02:12.853Z,13.41
2022-10-29T04:04:40.706Z,13.38
2022-10-29T04:07:08.523Z,13.36
2022-10-29T04:09:36.345Z,13.36
2022-10-29T04:12:04.727Z,13.35
2022-10-29T04:14:32.558Z,13.34
2022-10-29T04:17:00.786Z,13.35
2022-10-29T04:19:30.339Z,13.36
2022-10-29T04:24:32.464Z,13.37
2022-10-29T04:27:08.107Z,13.37
2022-10-29T04:28:41.855Z,13.36
2022-10-29T04:30:22.217Z,13.33
2022-10-29T04:32:50.223Z,13.32
2022-10-29T04:35:19.414Z,13.30
2022-10-29T04:37:47.163Z,13.28
2022-10-29T04:40:15.128Z,13.25
2022-10-29T04:42:42.996Z,13.24
2022-10-29T04:45:11.206Z,13.22
2022-10-29T04:47:39.008Z,13.19
2022-10-29T04:50:07.131Z,13.18
2022-10-29T04:52:36.239Z,13.16
2022-10-29T04:55:04.645Z,13.13
2022-10-29T04:57:32.685Z,13.12
2022-10-29T05:00:00.584Z,13.08
2022-10-29T05:02:28.375Z,13.07
2022-10-29T05:04:56.327Z,13.04
2022-10-29T05:07:24.091Z,13.03
2022-10-29T05:09:53.263Z,13.04
2022-10-29T05:12:21.301Z,13.03
2022-10-29T05:14:49.128Z,13.04
2022-10-29T05:17:16.896Z,13.03
2022-10-29T05:19:44.785Z,13.00
2022-10-29T05:22:12.565Z,12.98
2022-10-29T05:24:40.307Z,12.97
2022-10-29T05:27:09.669Z,12.95
2022-10-29T05:29:37.485Z,12.95
2022-10-29T05:32:05.788Z,12.94
2022-10-29T05:34:33.541Z,12.95
2022-10-29T05:37:01.343Z,12.96
2022-10-29T05:39:29.121Z,12.99
2022-10-29T05:41:56.861Z,13.01
2022-10-29T05:44:25.981Z,13.01
2022-10-29T05:46:53.818Z,13.01
2022-10-29T05:49:21.610Z,13.01
2022-10-29T05:51:49.408Z,13.01
2022-10-29T05:54:17.189Z,13.03
2022-10-29T05:56:44.946Z,13.06
2022-10-29T05:59:12.723Z,13.07
2022-10-29T06:01:42.044Z,13.07
2022-10-29T06:04:10.005Z,13.05
2022-10-29T06:06:38.038Z,13.04
2022-10-29T06:09:05.968Z,13.01
2022-10-29T06:11:33.740Z,13.01
2022-10-29T06:14:01.483Z,12.99
2022-10-29T06:16:29.282Z,12.97
2022-10-29T06:18:58.414Z,12.93
2022-10-29T06:21:26.270Z,12.93
2022-10-29T06:23:55.752Z,12.89
2022-10-29T06:26:23.582Z,12.88
2022-10-29T06:28:51.796Z,12.89
2022-10-29T06:31:19.689Z,12.91
2022-10-29T06:33:47.392Z,12.91
2022-10-29T06:36:16.505Z,12.93
2022-10-29T06:38:44.300Z,12.97
2022-10-29T06:41:12.198Z,12.99
2022-10-29T06:43:39.945Z,12.99
2022-10-29T06:46:07.884Z,13.00
2022-10-29T06:48:36.884Z,13.03
2022-10-29T06:51:04.924Z,13.04
2022-10-29T06:53:34.077Z,13.07
2022-10-29T06:56:01.856Z,13.08
2022-10-29T06:58:29.702Z,13.12
2022-10-29T07:03:26.214Z,13.13
2022-10-29T07:05:57.203Z,13.14
2022-10-29T07:08:25.328Z,13.15
2022-10-29T07:10:55.175Z,13.18
2022-10-29T07:13:23.153Z,13.20
2022-10-29T07:15:50.949Z,13.23
2022-10-29T07:18:18.774Z,13.26
2022-10-29T07:20:47.086Z,13.29
2022-10-29T07:23:14.861Z,13.34
2022-10-29T07:25:43.378Z,13.36
2022-10-29T07:28:14.755Z,13.42
2022-10-29T07:30:43.144Z,13.47
2022-10-29T07:33:11.116Z,13.52
2022-10-29T07:35:39.600Z,13.58
2022-10-29T07:38:10.923Z,13.65
2022-10-29T07:40:39.868Z,13.69
2022-10-29T07:43:07.713Z,13.75
2022-10-29T07:45:36.849Z,13.82
2022-10-29T07:48:07.516Z,13.87
2022-10-29T07:50:35.438Z,13.93
2022-10-29T07:53:04.404Z,13.97
2022-10-29T07:55:32.534Z,14.04
2022-10-29T07:58:02.496Z,14.10
2022-10-29T08:00:31.020Z,14.16
2022-10-29T08:03:00.172Z,14.23
2022-10-29T08:05:30.027Z,14.29
2022-10-29T08:07:58.897Z,14.34
2022-10-29T08:10:27.782Z,14.40
2022-10-29T08:12:57.854Z,14.47
2022-10-29T08:15:27.184Z,14.53
2022-10-29T08:17:55.460Z,14.60
2022-10-29T08:20:26.812Z,14.67
2022-10-29T08:22:55.111Z,14.75
2022-10-29T08:25:23.113Z,14.83
2022-10-29T08:28:00.365Z,14.91
2022-10-29T08:30:28.603Z,15.00
2022-10-29T08:32:57.350Z,15.10
2022-10-29T08:35:26.899Z,15.19
2022-10-29T08:37:54.644Z,15.28
2022-10-29T08:40:30.138Z,15.39
2022-10-29T08:43:26.024Z,15.48
2022-10-29T08:45:55.919Z,15.58
2022-10-29T08:48:34.248Z,15.69
2022-10-29T08:51:09.786Z,15.84
2022-10-29T08:53:40.540Z,15.96
2022-10-29T08:56:16.468Z,16.04
2022-10-29T08:58:54.292Z,16.06
2022-10-29T09:01:24.391Z,16.12
2022-10-29T09:03:53.186Z,16.21
2022-10-29T09:06:31.530Z,16.31
2022-10-29T09:09:11.880Z,16.49
2022-10-29T09:12:04.309Z,16.72
2022-10-29T09:14:55.539Z,16.97
2022-10-29T09:17:32.882Z,17.17
2022-10-29T09:20:09.812Z,17.35
2022-10-29T09:22:49.677Z,17.53
2022-10-29T09:25:23.687Z,17.68
2022-10-29T09:28:07.810Z,17.80
2022-10-29T09:30:44.150Z,17.91
2022-10-29T09:33:16.033Z,18.04
2022-10-29T09:35:47.382Z,18.17
2022-10-29T09:38:19.245Z,18.34
2022-10-29T09:40:47.379Z,18.49
2022-10-29T09:43:30.107Z,18.58
2022-10-29T09:46:02.351Z,18.75
2022-10-29T09:48:36.454Z,18.91
2022-10-29T09:51:16.421Z,19.00
2022-10-29T09:53:45.926Z,19.09
2022-10-29T09:56:13.704Z,19.16
2022-10-29T09:58:47.842Z,19.26
2022-10-29T10:01:15.737Z,19.35
2022-10-29T10:03:46.569Z,19.48
2022-10-29T10:06:16.366Z,19.57
2022-10-29T10:09:01.876Z,19.66
2022-10-29T10:11:38.000Z,19.71
2022-10-29T10:14:15.911Z,19.68
2022-10-29T10:16:44.050Z,19.61
2022-10-29T10:19:23.747Z,19.58
2022-10-29T10:21:59.096Z,19.59
2022-10-29T10:24:33.399Z,19.63
2022-10-29T10:27:01.543Z,19.67
2022-10-29T10:29:29.655Z,19.72
2022-10-29T10:32:17.079Z,19.81
2022-10-29T10:34:44.919Z,19.85
2022-10-29T10:37:19.373Z,19.89
2022-10-29T10:39:52.685Z,19.88
2022-10-29T10:42:25.616Z,19.88
2022-10-29T10:44:58.808Z,19.85
2022-10-29T10:47:30.697Z,19.80
2022-10-29T10:50:11.853Z,19.75
2022-10-29T10:52:40.085Z,19.70
2022-10-29T10:55:22.823Z,19.72
2022-10-29T10:57:59.390Z,19.73
2022-10-29T11:00:30.791Z,19.74
2022-10-29T11:03:04.976Z,19.73
2022-10-29T11:05:36.455Z,19.77
2022-10-29T11:08:11.667Z,19.79
2022-10-29T11:10:45.812Z,19.80
2022-10-29T11:13:16.951Z,19.76
2022-10-29T11:15:51.682Z,19.76
2022-10-29T11:18:25.395Z,19.74
2022-10-29T11:21:05.866Z,19.71
2022-10-29T11:23:44.468Z,19.68
2022-10-29T11:26:18.904Z,19.68
2022-10-29T11:28:54.127Z,19.70
2022-10-29T11:31:28.650Z,19.70
2022-10-29T11:34:04.174Z,19.70
2022-10-29T11:36:39.003Z,19.71
2022-10-29T11:39:12.239Z,19.74
2022-10-29T11:41:47.633Z,19.79
2022-10-29T11:44:20.766Z,19.87
2022-10-29T11:47:02.593Z,20.00
2022-10-29T11:49:47.620Z,20.08
2022-10-29T11:52:34.776Z,20.07
2022-10-29T11:55:20.483Z,20.05
2022-10-29T11:57:56.680Z,20.06
2022-10-29T12:00:25.841Z,20.08
2022-10-29T12:03:32.085Z,20.06
2022-10-29T12:06:10.468Z,20.07
2022-10-29T12:08:57.132Z,20.09
2022-10-29T12:11:32.597Z,20.14
2022-10-29T12:14:12.804Z,20.24
2022-10-29T12:16:50.409Z,20.36
2022-10-29T12:19:38.519Z,20.53
2022-10-29T12:22:18.623Z,20.69
2022-10-29T12:25:07.781Z,20.78
2022-10-29T12:27:45.699Z,20.85
2022-10-29T12:30:18.190Z,20.92
2022-10-29T12:32:56.209Z,20.99
2022-10-29T12:35:30.239Z,20.99
2022-10-29T12:38:13.643Z,21.00
2022-10-29T12:40:44.823Z,20.99
2022-10-29T12:43:19.355Z,20.98
2022-10-29T12:48:54.515Z,21.25
2022-10-29T12:51:29.914Z,21.52
2022-10-29T12:54:16.450Z,21.78
2022-10-29T12:56:47.796Z,22.04
2022-10-29T12:59:34.041Z,22.23
2022-10-29T13:02:27.729Z,22.48
2022-10-29T13:05:37.126Z,22.63
2022-10-29T13:08:44.517Z,22.66
2022-10-29T13:11:24.146Z,22.66
2022-10-29T13:13:58.176Z,22.73
2022-10-29T13:16:31.332Z,22.79
2022-10-29T13:19:15.202Z,22.79
2022-10-29T13:21:59.862Z,22.75
2022-10-29T13:24:28.668Z,22.71
2022-10-29T13:27:05.896Z,22.65
2022-10-29T13:29:51.153Z,22.58
2022-10-29T13:32:33.030Z,22.51
2022-10-29T13:35:03.877Z,22.45
2022-10-29T13:37:53.800Z,22.39
2022-10-29T13:40:41.589Z,22.32
2022-10-29T13:43:18.044Z,22.24
2022-10-29T13:45:51.217Z,22.16
2022-10-29T13:48:26.289Z,22.06
2022-10-29T13:50:58.638Z,21.99
2022-10-29T13:53:36.461Z,21.93
2022-10-29T13:56:08.135Z,21.91
2022-10-29T13:58:38.535Z,21.89
2022-10-29T14:01:12.179Z,21.84
2022-10-29T14:03:50.849Z,21.77
2022-10-29T14:06:26.084Z,21.70
2022-10-29T14:09:01.267Z,21.60
2022-10-29T14:11:31.894Z,21.55
2022-10-29T14:14:02.321Z,21.49
2022-10-29T14:16:32.634Z,21.44
2022-10-29T14:19:14.654Z,21.40
2022-10-29T14:21:43.833Z,21.36
2022-10-29T14:24:15.943Z,21.32
2022-10-29T14:26:45.587Z,21.24
2022-10-29T14:29:21.279Z,21.16
2022-10-29T14:32:05.228Z,21.07
2022-10-29T14:34:33.202Z,21.00
2022-10-29T14:37:05.777Z,20.93
2022-10-29T14:39:48.503Z,20.86
2022-10-29T14:42:31.420Z,20.77
2022-10-29T14:45:02.727Z,20.70
2022-10-29T14:47:33.591Z,20.64
2022-10-29T14:50:05.004Z,20.56
2022-10-29T14:52:38.633Z,20.49
2022-10-29T14:55:10.014Z,20.42
2022-10-29T14:57:44.496Z,20.34
2022-10-29T15:00:24.226Z,20.27
2022-10-29T15:02:53.509Z,20.22
2022-10-29T15:05:26.103Z,20.15
2022-10-29T15:08:07.076Z,20.07
2022-10-29T15:10:46.243Z,19.98
2022-10-29T15:13:30.406Z,19.90
2022-10-29T15:16:02.093Z,19.83
2022-10-29T15:18:31.610Z,19.73
2022-10-29T15:20:59.793Z,19.65
2022-10-29T15:23:34.045Z,19.57
2022-10-29T15:26:04.225Z,19.50
2022-10-29T15:28:40.917Z,19.41
2022-10-29T15:31:21.971Z,19.34
2022-10-29T15:33:52.606Z,19.24
2022-10-29T15:36:20.815Z,19.17
2022-10-29T15:39:21.044Z,19.09
2022-10-29T15:41:51.547Z,18.98
2022-10-29T15:44:39.337Z,18.90
2022-10-29T15:47:28.624Z,18.81
2022-10-29T15:49:56.686Z,18.72
2022-10-29T15:52:31.074Z,18.64
2022-10-29T15:55:00.819Z,18.55
2022-10-29T15:57:31.463Z,18.46
2022-10-29T16:00:05.248Z,18.38
2022-10-29T16:02:33.154Z,18.30
2022-10-29T16:05:01.160Z,18.23
2022-10-29T16:07:29.031Z,18.16
2022-10-29T16:09:58.984Z,18.10
2022-10-29T16:12:27.053Z,18.02
2022-10-29T16:14:56.230Z,17.93
2022-10-29T16:17:23.960Z,17.86
2022-10-29T16:19:51.915Z,17.77
2022-10-29T16:22:27.768Z,17.69
2022-10-29T16:24:56.134Z,17.62
2022-10-29T16:27:23.949Z,17.53
2022-10-29T16:29:51.924Z,17.45
2022-10-29T16:32:23.869Z,17.39
2022-10-29T16:34:52.276Z,17.32
2022-10-29T16:37:21.492Z,17.28
2022-10-29T16:39:49.320Z,17.24
2022-10-29T16:42:30.939Z,17.17
2022-10-29T16:44:58.827Z,17.12
2022-10-29T16:47:28.221Z,17.06
2022-10-29T16:49:56.139Z,17.03
2022-10-29T16:52:26.350Z,16.98
2022-10-29T16:54:56.921Z,16.93
2022-10-29T16:57:25.076Z,16.88
2022-10-29T16:59:52.873Z,16.83
2022-10-29T17:02:20.649Z,16.79
2022-10-29T17:04:49.886Z,16.74
2022-10-29T17:07:18.287Z,16.69
2022-10-29T17:09:46.120Z,16.64
2022-10-29T17:12:13.980Z,16.62
2022-10-29T17:14:41.846Z,16.57
2022-10-29T17:17:09.571Z,16.54
2022-10-29T17:19:37.525Z,16.51
2022-10-29T17:22:10.492Z,16.46
2022-10-29T17:24:38.378Z,16.44
2022-10-29T17:27:06.191Z,16.40
2022-10-29T17:29:36.444Z,16.37
2022-10-29T17:32:05.818Z,16.33
2022-10-29T17:34:35.103Z,16.31
2022-10-29T17:37:04.300Z,16.28
2022-10-29T17:39:33.449Z,16.25
2022-10-29T17:42:01.300Z,16.22
2022-10-29T17:44:29.100Z,16.19
2022-10-29T17:46:56.854Z,16.15
2022-10-29T17:49:25.818Z,16.13
2022-10-29T17:51:53.815Z,16.08
2022-10-29T17:54:22.151Z,16.06
2022-10-29T17:56:52.225Z,16.02
2022-10-29T17:59:20.026Z,15.99
2022-10-29T18:01:48.159Z,15.96
2022-10-29T18:04:16.491Z,15.93
2022-10-29T18:06:44.345Z,15.88
2022-10-29T18:09:13.746Z,15.85
2022-10-29T18:11:43.646Z,15.82
2022-10-29T18:14:12.740Z,15.77
2022-10-29T18:16:40.461Z,15.73
2022-10-29T18:19:08.284Z,15.69
2022-10-29T18:21:36.009Z,15.64
2022-10-29T18:24:03.799Z,15.62
2022-10-29T18:26:33.120Z,15.57
2022-10-29T18:29:02.373Z,15.52
2022-10-29T18:31:33.043Z,15.49
2022-10-29T18:34:04.782Z,15.44
2022-10-29T18:36:33.248Z,15.40
2022-10-29T18:39:01.233Z,15.35
2022-10-29T18:41:29.033Z,15.30
2022-10-29T18:43:56.949Z,15.24
2022-10-29T18:46:24.779Z,15.21
2022-10-29T18:48:53.935Z,15.17
2022-10-29T18:51:24.709Z,15.13
2022-10-29T18:53:53.384Z,15.07
2022-10-29T18:56:22.770Z,15.02
2022-10-29T18:58:50.824Z,14.98
2022-10-29T19:01:20.609Z,14.95
2022-10-29T19:03:50.630Z,14.92
2022-10-29T19:06:20.876Z,14.89
2022-10-29T19:08:48.796Z,14.84
2022-10-29T19:11:18.604Z,14.82
2022-10-29T19:13:51.284Z,14.77
2022-10-29T19:16:19.893Z,14.74
2022-10-29T19:18:47.925Z,14.70
2022-10-29T19:21:17.741Z,14.68
2022-10-29T19:23:47.368Z,14.65
2022-10-29T19:26:17.588Z,14.64
2022-10-29T19:28:47.015Z,14.61
2022-10-29T19:31:16.876Z,14.59
2022-10-29T19:33:48.344Z,14.55
2022-10-29T19:36:16.241Z,14.55
2022-10-29T19:38:44.350Z,14.51
2022-10-29T19:41:14.198Z,14.48
2022-10-29T19:43:42.747Z,14.45
2022-10-29T19:46:13.103Z,14.43
2022-10-29T19:48:41.371Z,14.41
2022-10-29T19:51:10.218Z,14.37
2022-10-29T19:53:39.568Z,14.35
2022-10-29T19:56:08.394Z,14.35
2022-10-29T19:58:37.526Z,14.33
2022-10-29T20:01:07.211Z,14.31
2022-10-29T20:03:35.043Z,14.30
2022-10-29T20:06:02.915Z,14.27
2022-10-29T20:08:31.055Z,14.27
2022-10-29T20:10:59.647Z,14.27
2022-10-29T20:13:28.267Z,14.27
2022-10-29T20:15:57.469Z,14.26
2022-10-29T20:18:25.877Z,14.24
2022-10-29T20:20:57.905Z,14.22
2022-10-29T20:23:26.429Z,14.20
2022-10-29T20:25:54.188Z,14.17
2022-10-29T20:28:22.491Z,14.16
2022-10-29T20:30:50.250Z,14.15
2022-10-29T20:33:19.514Z,14.14
2022-10-29T20:35:47.302Z,14.12
2022-10-29T20:38:15.114Z,14.11
2022-10-29T20:40:42.876Z,14.07
2022-10-29T20:43:10.693Z,14.08
2022-10-29T20:45:38.534Z,14.06
2022-10-29T20:48:07.322Z,14.04
2022-10-29T20:50:36.472Z,14.03
2022-10-29T20:53:04.430Z,14.02
2022-10-29T20:55:32.256Z,14.01
2022-10-29T20:58:00.494Z,14.01
2022-10-29T21:00:28.501Z,14.02
2022-10-29T21:02:56.256Z,14.02
2022-10-29T21:05:24.052Z,14.00
2022-10-29T21:07:53.203Z,14.01
2022-10-29T21:10:21.071Z,14.01
2022-10-29T21:12:48.857Z,14.01
2022-10-29T21:15:16.976Z,14.00
2022-10-29T21:17:44.878Z,13.98
2022-10-29T21:20:12.782Z,13.97
2022-10-29T21:22:40.994Z,13.95
2022-10-29T21:25:11.295Z,13.93
2022-10-29T21:27:39.580Z,13.93
2022-10-29T21:30:09.050Z,13.92
2022-10-29T21:32:36.977Z,13.90
2022-10-29T21:35:04.918Z,13.92
2022-10-29T21:37:32.717Z,13.90
2022-10-29T21:40:03.433Z,13.89
2022-10-29T21:42:35.450Z,13.90
2022-10-29T21:45:03.611Z,13.89
2022-10-29T21:47:31.387Z,13.89
2022-10-29T21:49:59.191Z,13.83
2022-10-29T21:52:27.029Z,13.75
2022-10-29T21:54:54.813Z,13.71
2022-10-29T21:57:22.595Z,13.68
2022-10-29T21:59:51.744Z,13.67
2022-10-29T22:02:19.568Z,13.64
2022-10-29T22:04:47.369Z,13.61
2022-10-29T22:07:15.412Z,13.61
2022-10-29T22:09:43.169Z,13.59
2022-10-29T22:12:10.983Z,13.58
2022-10-29T22:14:38.764Z,13.56
2022-10-29T22:17:07.966Z,13.54
2022-10-29T22:19:35.748Z,13.54
2022-10-29T22:22:03.633Z,13.53
2022-10-29T22:24:31.442Z,13.52
2022-10-29T22:26:59.241Z,13.51
2022-10-29T22:29:27.061Z,13.49
2022-10-29T22:31:54.950Z,13.48
2022-10-29T22:34:24.292Z,13.48
2022-10-29T22:36:52.430Z,13.47
2022-10-29T22:39:20.231Z,13.45
2022-10-29T22:41:47.992Z,13.44
2022-10-29T22:44:15.731Z,13.43
2022-10-29T22:46:43.557Z,13.41
2022-10-29T22:49:12.176Z,13.41
2022-10-29T22:51:41.671Z,13.40
2022-10-29T22:54:09.484Z,13.38
2022-10-29T22:56:39.129Z,13.38
2022-10-29T22:59:07.400Z,13.37
2022-10-29T23:01:40.320Z,13.36
2022-10-29T23:04:12.106Z,13.35
2022-10-29T23:06:41.283Z,13.34
2022-10-29T23:09:09.090Z,13.34
2022-10-29T23:11:39.249Z,13.32
2022-10-29T23:14:07.325Z,13.30
2022-10-29T23:16:37.431Z,13.28
2022-10-29T23:19:06.963Z,13.27
2022-10-29T23:21:34.803Z,13.26
2022-10-29T23:24:04.261Z,13.25
2022-10-29T23:26:32.103Z,13.23
2022-10-29T23:29:00.141Z,13.22
2022-10-29T23:31:29.469Z,13.21
2022-10-29T23:33:58.344Z,13.18
2022-10-29T23:36:28.068Z,13.19
2022-10-29T23:38:56.848Z,13.18
2022-10-29T23:41:26.123Z,13.18
2022-10-29T23:43:54.005Z,13.19
2022-10-29T23:46:22.397Z,13.20
2022-10-29T23:48:50.838Z,13.21
2022-10-29T23:51:19.105Z,13.21
2022-10-29T23:53:49.168Z,13.22
2022-10-29T23:56:19.476Z,13.22
2022-10-29T23:58:48.603Z,13.22
